createdAt,value
2018-09-19T00:02:33.742Z,5.57
2018-09-19T00:05:16.842Z,5.23
2018-09-19T00:08:00.046Z,6.73
2018-09-19T00:11:12.107Z,6.60
2018-09-19T00:13:55.288Z,8.57
2018-09-19T00:16:37.503Z,8.07
2018-09-19T00:19:20.374Z,8.53
2018-09-19T00:22:02.976Z,9.77
2018-09-19T00:24:46.214Z,9.20
2018-09-19T00:27:28.552Z,10.27
2018-09-19T00:30:11.267Z,8.23
2018-09-19T00:32:54.102Z,7.17
2018-09-19T00:35:36.835Z,6.70
2018-09-19T00:38:19.544Z,9.23
2018-09-19T00:41:02.160Z,5.83
2018-09-19T00:43:45.444Z,6.37
2018-09-19T00:46:28.673Z,8.13
2018-09-19T00:49:11.359Z,7.53
2018-09-19T00:51:54.123Z,7.40
2018-09-19T00:54:36.797Z,8.00
2018-09-19T00:57:19.598Z,7.70
2018-09-19T01:00:02.429Z,7.23
2018-09-19T01:02:45.070Z,8.00
2018-09-19T01:05:27.825Z,7.40
2018-09-19T01:08:10.444Z,6.77
2018-09-19T01:10:53.058Z,7.10
2018-09-19T01:13:35.896Z,7.63
2018-09-19T01:16:19.415Z,7.37
2018-09-19T01:19:02.201Z,6.50
2018-09-19T01:21:44.934Z,6.63
2018-09-19T01:24:27.671Z,7.13
2018-09-19T01:27:10.203Z,6.47
2018-09-19T01:29:53.385Z,5.93
2018-09-19T01:32:36.264Z,6.33
2018-09-19T01:35:18.866Z,5.90
2018-09-19T01:38:01.334Z,5.80
2018-09-19T01:40:45.447Z,5.27
2018-09-19T01:43:28.042Z,6.27
2018-09-19T01:46:10.692Z,5.17
2018-09-19T01:48:53.413Z,5.77
2018-09-19T01:51:37.177Z,5.33
2018-09-19T01:54:19.938Z,5.90
2018-09-19T01:57:02.862Z,5.37
2018-09-19T01:59:45.078Z,5.33
2018-09-19T02:02:29.108Z,5.07
2018-09-19T02:05:11.706Z,5.40
2018-09-19T02:07:54.546Z,6.53
2018-09-19T02:10:37.622Z,5.77
2018-09-19T02:13:20.421Z,6.17
2018-09-19T02:16:03.095Z,6.90
2018-09-19T02:18:45.464Z,6.77
2018-09-19T02:21:28.252Z,6.47
2018-09-19T02:24:11.246Z,6.10
2018-09-19T02:26:53.740Z,5.53
2018-09-19T02:29:36.327Z,6.43
2018-09-19T02:32:19.194Z,6.90
2018-09-19T02:35:01.905Z,7.47
2018-09-19T02:37:44.832Z,6.73
2018-09-19T02:40:27.227Z,7.13
2018-09-19T02:43:09.775Z,7.33
2018-09-19T02:45:52.613Z,7.30
2018-09-19T02:48:35.210Z,7.30
2018-09-19T02:51:18.699Z,7.47
2018-09-19T02:54:01.945Z,8.10
2018-09-19T02:56:44.565Z,7.87
2018-09-19T02:59:27.757Z,7.83
2018-09-19T03:02:11.061Z,7.37
2018-09-19T03:04:53.674Z,7.20
2018-09-19T03:07:36.495Z,6.70
2018-09-19T03:10:19.130Z,6.87
2018-09-19T03:13:02.190Z,7.20
2018-09-19T03:15:44.764Z,7.30
2018-09-19T03:18:27.277Z,7.53
2018-09-19T03:21:10.088Z,6.73
2018-09-19T03:23:52.727Z,7.30
2018-09-19T03:26:35.507Z,6.87
2018-09-19T03:29:18.255Z,7.47
2018-09-19T03:32:01.905Z,8.10
2018-09-19T03:34:45.844Z,6.53
2018-09-19T03:37:28.910Z,7.40
2018-09-19T03:40:12.588Z,7.03
2018-09-19T03:42:55.454Z,7.27
2018-09-19T03:45:38.029Z,6.70
2018-09-19T03:48:20.644Z,7.40
2018-09-19T03:51:03.240Z,6.70
2018-09-19T03:53:46.071Z,8.20
2018-09-19T03:56:29.917Z,7.53
2018-09-19T03:59:12.163Z,7.33
2018-09-19T04:01:54.949Z,6.93
2018-09-19T04:04:37.865Z,7.17
2018-09-19T04:07:20.362Z,8.90
2018-09-19T04:10:02.942Z,8.37
2018-09-19T04:12:45.821Z,8.33
2018-09-19T04:15:28.542Z,8.87
2018-09-19T04:18:11.120Z,8.83
2018-09-19T04:20:53.746Z,8.80
2018-09-19T04:23:36.412Z,8.90
2018-09-19T04:26:19.148Z,8.40
2018-09-19T04:29:01.864Z,8.40
2018-09-19T04:31:44.827Z,9.07
2018-09-19T04:34:27.192Z,8.87
2018-09-19T04:37:09.993Z,9.27
2018-09-19T04:39:52.594Z,8.43
2018-09-19T04:42:35.563Z,8.77
2018-09-19T04:45:17.997Z,8.83
2018-09-19T04:48:01.117Z,10.00
2018-09-19T04:50:43.816Z,9.50
2018-09-19T04:53:26.083Z,9.90
2018-09-19T04:56:08.621Z,9.40
2018-09-19T04:58:51.442Z,10.00
2018-09-19T05:01:34.404Z,9.90
2018-09-19T05:04:16.662Z,9.93
2018-09-19T05:06:59.452Z,10.60
2018-09-19T05:09:42.258Z,10.67
2018-09-19T05:12:25.015Z,11.00
2018-09-19T05:15:07.702Z,9.53
2018-09-19T05:17:50.631Z,12.20
2018-09-19T05:20:34.295Z,10.27
2018-09-19T05:23:17.142Z,10.53
2018-09-19T05:25:59.799Z,10.20
2018-09-19T05:28:42.349Z,10.10
2018-09-19T05:31:25.034Z,9.87
2018-09-19T05:34:07.850Z,10.23
2018-09-19T05:36:50.803Z,9.60
2018-09-19T05:39:34.078Z,9.67
2018-09-19T05:42:17.219Z,9.40
2018-09-19T05:45:00.674Z,8.70
2018-09-19T05:47:42.980Z,9.20
2018-09-19T05:50:25.683Z,9.50
2018-09-19T05:53:08.339Z,8.93
2018-09-19T05:55:51.121Z,8.83
2018-09-19T05:58:34.021Z,8.17
2018-09-19T06:01:16.731Z,8.33
2018-09-19T06:03:59.354Z,7.47
2018-09-19T06:06:42.170Z,9.33
2018-09-19T06:09:25.150Z,7.83
2018-09-19T06:12:07.608Z,9.37
2018-09-19T06:14:50.391Z,7.70
2018-09-19T06:17:33.269Z,7.80
2018-09-19T06:20:15.971Z,8.07
2018-09-19T06:22:58.775Z,7.50
2018-09-19T06:25:41.686Z,7.50
2018-09-19T06:28:24.174Z,6.70
2018-09-19T06:31:07.052Z,6.60
2018-09-19T06:33:49.494Z,8.53
2018-09-19T06:36:32.298Z,7.20
2018-09-19T06:39:14.739Z,6.73
2018-09-19T06:41:57.310Z,6.43
2018-09-19T06:44:39.963Z,7.47
2018-09-19T06:47:23.430Z,7.10
2018-09-19T06:50:06.452Z,7.10
2018-09-19T06:52:49.125Z,6.50
2018-09-19T06:55:32.131Z,6.00
2018-09-19T06:58:14.855Z,7.33
2018-09-19T07:00:57.632Z,7.20
2018-09-19T07:03:40.104Z,6.57
2018-09-19T07:06:22.774Z,6.40
2018-09-19T07:09:06.829Z,6.80
2018-09-19T07:11:49.153Z,6.40
2018-09-19T07:14:31.913Z,6.80
2018-09-19T07:17:14.837Z,5.70
2018-09-19T07:19:57.678Z,5.90
2018-09-19T07:22:40.246Z,6.17
2018-09-19T07:25:22.923Z,6.20
2018-09-19T07:28:05.678Z,5.63
2018-09-19T07:30:48.666Z,5.70
2018-09-19T07:33:31.185Z,5.53
2018-09-19T07:36:14.371Z,4.67
2018-09-19T07:38:57.770Z,4.90
2018-09-19T07:41:40.867Z,4.97
2018-09-19T07:44:24.106Z,4.67
2018-09-19T07:47:06.935Z,3.60
2018-09-19T07:49:49.297Z,4.30
2018-09-19T07:52:31.890Z,4.50
2018-09-19T07:55:14.991Z,4.77
2018-09-19T07:57:57.197Z,4.60
2018-09-19T08:00:40.224Z,4.50
2018-09-19T08:03:22.835Z,4.70
2018-09-19T08:06:05.876Z,4.77
2018-09-19T08:08:48.111Z,4.50
2018-09-19T08:11:30.847Z,4.65
2018-09-19T08:14:13.658Z,4.20
2018-09-19T08:16:56.686Z,4.40
2018-09-19T08:19:39.975Z,4.80
2018-09-19T08:22:22.429Z,5.05
2018-09-19T08:25:05.246Z,3.52
2018-09-19T08:27:48.371Z,4.22
2018-09-19T08:30:31.267Z,4.20
2018-09-19T08:33:14.397Z,4.75
2018-09-19T08:35:57.172Z,4.37
2018-09-19T08:38:39.948Z,4.33
2018-09-19T08:41:22.615Z,4.17
2018-09-19T08:44:05.967Z,4.60
2018-09-19T08:46:49.150Z,4.78
2018-09-19T08:49:31.722Z,5.20
2018-09-19T08:52:14.489Z,4.40
2018-09-19T08:54:57.403Z,4.17
2018-09-19T08:57:39.667Z,4.53
2018-09-19T09:00:22.294Z,4.33
2018-09-19T09:03:05.122Z,5.33
2018-09-19T09:05:47.563Z,4.30
2018-09-19T09:08:30.225Z,4.17
2018-09-19T09:11:12.942Z,4.70
2018-09-19T09:13:55.651Z,3.77
2018-09-19T09:16:38.220Z,4.92
2018-09-19T09:19:21.021Z,5.00
2018-09-19T09:22:03.954Z,5.05
2018-09-19T09:24:46.676Z,4.87
2018-09-19T09:27:29.335Z,4.97
2018-09-19T09:30:12.081Z,5.50
2018-09-19T09:32:54.679Z,5.28
2018-09-19T09:35:37.976Z,5.37
2018-09-19T09:38:21.357Z,4.33
2018-09-19T09:41:04.656Z,4.60
2018-09-19T09:43:47.441Z,4.58
2018-09-19T09:46:30.530Z,4.72
2018-09-19T09:49:12.925Z,4.92
2018-09-19T09:51:55.780Z,4.83
2018-09-19T09:54:38.491Z,4.62
2018-09-19T09:57:21.174Z,4.62
2018-09-19T10:00:04.332Z,4.70
2018-09-19T10:02:46.892Z,4.83
2018-09-19T10:05:29.524Z,6.20
2018-09-19T10:08:12.479Z,5.08
2018-09-19T10:10:55.338Z,5.37
2018-09-19T10:13:38.349Z,6.03
2018-09-19T10:16:20.977Z,5.03
2018-09-19T10:19:03.724Z,5.28
2018-09-19T10:21:46.628Z,4.50
2018-09-19T10:24:29.525Z,4.55
2018-09-19T10:27:12.179Z,4.30
2018-09-19T10:29:54.968Z,4.90
2018-09-19T10:32:37.828Z,4.08
2018-09-19T10:35:20.606Z,5.03
2018-09-19T10:38:03.295Z,3.80
2018-09-19T10:40:46.107Z,3.50
2018-09-19T10:43:28.884Z,3.90
2018-09-19T10:46:11.811Z,4.42
2018-09-19T10:48:54.547Z,4.58
2018-09-19T10:51:37.175Z,4.00
2018-09-19T10:54:19.838Z,4.37
2018-09-19T10:57:02.615Z,4.25
2018-09-19T10:59:45.304Z,4.15
2018-09-19T11:02:28.478Z,3.83
2018-09-19T11:05:10.963Z,4.97
2018-09-19T11:07:53.784Z,4.87
2018-09-19T11:10:36.646Z,3.98
2018-09-19T11:13:19.818Z,4.78
2018-09-19T11:16:02.601Z,4.25
2018-09-19T11:18:45.042Z,4.80
2018-09-19T11:21:27.947Z,5.33
2018-09-19T11:24:10.626Z,4.12
2018-09-19T11:26:53.927Z,4.55
2018-09-19T11:29:36.295Z,4.28
2018-09-19T11:32:19.216Z,3.75
2018-09-19T11:35:02.016Z,4.22
2018-09-19T11:37:44.802Z,4.10
2018-09-19T11:40:27.661Z,4.62
2018-09-19T11:43:10.312Z,3.87
2018-09-19T11:45:53.018Z,3.75
2018-09-19T11:48:36.026Z,3.62
2018-09-19T11:51:18.736Z,3.90
2018-09-19T11:54:01.525Z,3.95
2018-09-19T11:56:44.434Z,4.05
2018-09-19T11:59:27.220Z,3.77
2018-09-19T12:02:09.879Z,4.03
2018-09-19T12:04:52.588Z,4.83
2018-09-19T12:07:35.386Z,4.17
2018-09-19T12:10:18.991Z,3.70
2018-09-19T12:13:01.856Z,4.00
2018-09-19T12:15:44.669Z,3.92
2018-09-19T12:18:28.710Z,4.50
2018-09-19T12:21:11.071Z,4.15
2018-09-19T12:23:53.825Z,4.30
2018-09-19T12:26:36.927Z,4.37
2018-09-19T12:29:19.697Z,5.03
2018-09-19T12:32:02.719Z,4.00
2018-09-19T12:34:45.314Z,4.30
2018-09-19T12:37:28.090Z,4.70
2018-09-19T12:40:10.779Z,4.50
2018-09-19T12:42:53.606Z,4.12
2018-09-19T12:45:36.547Z,3.70
2018-09-19T12:48:19.836Z,4.28
2018-09-19T12:51:03.549Z,4.72
2018-09-19T12:53:45.834Z,4.78
2018-09-19T12:56:28.635Z,4.78
2018-09-19T12:59:12.090Z,4.05
2018-09-19T13:01:55.243Z,4.47
2018-09-19T13:04:38.138Z,4.30
2018-09-19T13:07:20.690Z,3.90
2018-09-19T13:10:03.590Z,4.25
2018-09-19T13:12:46.246Z,5.03
2018-09-19T13:15:28.782Z,4.87
2018-09-19T13:18:11.663Z,4.40
2018-09-19T13:20:54.522Z,5.03
2018-09-19T13:23:37.119Z,4.42
2018-09-19T13:26:22.802Z,4.15
2018-09-19T13:29:06.598Z,3.90
2018-09-19T13:31:49.619Z,4.92
2018-09-19T13:34:32.142Z,4.45
2018-09-19T13:37:14.987Z,3.98
2018-09-19T13:39:57.851Z,5.78
2018-09-19T13:42:41.050Z,4.22
2018-09-19T13:45:23.286Z,4.58
2018-09-19T13:48:06.673Z,4.92
2018-09-19T13:50:56.255Z,4.62
2018-09-19T13:53:38.810Z,4.50
2018-09-19T13:56:22.791Z,4.53
2018-09-19T13:59:05.412Z,4.53
2018-09-19T14:01:47.921Z,5.30
2018-09-19T14:04:30.662Z,4.62
2018-09-19T14:07:13.346Z,4.90
2018-09-19T14:09:56.045Z,5.58
2018-09-19T14:12:38.870Z,4.85
2018-09-19T14:15:21.626Z,5.42
2018-09-19T14:18:04.352Z,4.28
2018-09-19T14:20:47.046Z,5.20
2018-09-19T14:23:30.519Z,4.53
2018-09-19T14:26:13.630Z,4.67
2018-09-19T14:28:56.318Z,5.50
2018-09-19T14:31:39.050Z,5.03
2018-09-19T14:34:21.840Z,5.53
2018-09-19T14:37:04.509Z,4.90
2018-09-19T14:39:47.292Z,5.55
2018-09-19T14:42:30.238Z,5.95
2018-09-19T14:45:13.194Z,5.67
2018-09-19T14:47:55.601Z,5.80
2018-09-19T14:50:38.366Z,5.08
2018-09-19T14:53:20.926Z,4.97
2018-09-19T14:56:03.654Z,6.33
2018-09-19T14:58:46.387Z,5.70
2018-09-19T15:01:29.126Z,6.33
2018-09-19T15:04:11.834Z,5.42
2018-09-19T15:06:54.386Z,5.10
2018-09-19T15:09:37.003Z,6.00
2018-09-19T15:12:19.782Z,5.28
2018-09-19T15:15:02.500Z,5.13
2018-09-19T15:17:45.194Z,6.20
2018-09-19T15:20:27.803Z,6.20
2018-09-19T15:23:10.578Z,6.37
2018-09-19T15:25:53.413Z,6.97
2018-09-19T15:28:36.091Z,6.67
2018-09-19T15:31:18.719Z,6.87
2018-09-19T15:34:01.684Z,5.93
2018-09-19T15:36:44.302Z,5.60
2018-09-19T15:39:27.644Z,6.37
2018-09-19T15:42:10.679Z,6.10
2018-09-19T15:44:53.326Z,6.40
2018-09-19T15:47:36.151Z,6.37
2018-09-19T15:50:18.851Z,6.90
2018-09-19T15:53:01.511Z,5.37
2018-09-19T15:55:44.283Z,6.83
2018-09-19T15:58:26.947Z,6.07
2018-09-19T16:01:09.876Z,5.70
2018-09-19T16:03:52.884Z,5.70
2018-09-19T16:06:35.398Z,6.60
2018-09-19T16:09:18.160Z,7.27
2018-09-19T16:12:01.124Z,5.67
2018-09-19T16:14:43.454Z,6.17
2018-09-19T16:17:26.498Z,6.83
2018-09-19T16:20:08.965Z,7.20
2018-09-19T16:22:51.699Z,6.57
2018-09-19T16:25:34.754Z,7.20
2018-09-19T16:28:18.285Z,7.27
2018-09-19T16:31:01.761Z,6.90
2018-09-19T16:33:44.227Z,7.30
2018-09-19T16:36:26.963Z,7.77
2018-09-19T16:39:11.539Z,7.27
2018-09-19T16:41:54.471Z,8.30
2018-09-19T16:44:37.193Z,7.93
2018-09-19T16:47:19.878Z,7.10
2018-09-19T16:50:03.032Z,7.47
2018-09-19T16:52:45.531Z,7.90
2018-09-19T16:55:28.408Z,7.60
2018-09-19T16:58:11.226Z,8.00
2018-09-19T17:00:53.981Z,6.97
2018-09-19T17:03:36.525Z,8.30
2018-09-19T17:06:19.059Z,8.00
2018-09-19T17:09:01.982Z,9.03
2018-09-19T17:11:44.666Z,11.53
2018-09-19T17:14:27.850Z,11.00
2018-09-19T17:17:10.903Z,10.30
2018-09-19T17:19:53.450Z,8.97
2018-09-19T17:22:36.510Z,9.07
2018-09-19T17:25:18.995Z,8.90
2018-09-19T17:28:02.375Z,7.90
2018-09-19T17:30:45.551Z,9.53
2018-09-19T17:33:28.025Z,8.30
2018-09-19T17:36:11.134Z,8.50
2018-09-19T17:38:53.449Z,10.10
2018-09-19T17:41:36.774Z,7.60
2018-09-19T17:44:19.042Z,7.77
2018-09-19T17:47:02.256Z,8.30
2018-09-19T17:49:45.378Z,9.40
2018-09-19T17:52:28.429Z,12.07
2018-09-19T17:55:11.269Z,8.83
2018-09-19T17:57:53.994Z,9.53
2018-09-19T18:00:36.787Z,9.43
2018-09-19T18:03:19.856Z,9.80
2018-09-19T18:06:02.544Z,9.93
2018-09-19T18:08:45.177Z,9.47
2018-09-19T18:11:28.118Z,8.80
2018-09-19T18:14:10.710Z,10.23
2018-09-19T18:16:53.412Z,10.73
2018-09-19T18:19:36.362Z,10.47
2018-09-19T18:22:19.111Z,10.60
2018-09-19T18:25:01.932Z,10.00
2018-09-19T18:27:44.459Z,9.87
2018-09-19T18:30:27.758Z,9.13
2018-09-19T18:33:10.990Z,8.90
2018-09-19T18:35:53.774Z,10.33
2018-09-19T18:38:36.607Z,9.83
2018-09-19T18:41:19.670Z,10.27
2018-09-19T18:44:02.018Z,10.77
2018-09-19T18:46:45.129Z,10.33
2018-09-19T18:49:27.566Z,12.77
2018-09-19T18:52:10.434Z,11.33
2018-09-19T18:54:56.503Z,10.30
2018-09-19T18:57:38.756Z,11.80
2018-09-19T19:00:21.450Z,13.27
2018-09-19T19:03:04.428Z,10.83
2018-09-19T19:05:46.987Z,13.00
2018-09-19T19:08:29.833Z,14.30
2018-09-19T19:11:12.543Z,18.60
2018-09-19T19:13:55.386Z,12.10
2018-09-19T19:16:38.068Z,11.80
2018-09-19T19:19:20.826Z,11.80
2018-09-19T19:22:04.026Z,13.10
2018-09-19T19:24:47.206Z,12.47
2018-09-19T19:27:30.129Z,11.50
2018-09-19T19:30:13.046Z,11.57
2018-09-19T19:32:55.536Z,11.70
2018-09-19T19:35:37.889Z,11.33
2018-09-19T19:38:20.680Z,10.67
2018-09-19T19:41:03.600Z,10.50
2018-09-19T19:43:46.334Z,11.50
2018-09-19T19:46:29.351Z,10.17
2018-09-19T19:49:12.039Z,11.70
2018-09-19T19:51:54.842Z,11.77
2018-09-19T19:54:37.769Z,10.77
2018-09-19T19:57:20.506Z,11.40
2018-09-19T20:00:03.246Z,11.83
2018-09-19T20:02:46.766Z,10.93
2018-09-19T20:05:29.519Z,12.97
2018-09-19T20:08:12.719Z,11.03
2018-09-19T20:10:55.482Z,11.40
2018-09-19T20:13:38.578Z,11.50
2018-09-19T20:16:21.507Z,12.23
2018-09-19T20:19:04.266Z,11.13
2018-09-19T20:21:46.610Z,10.70
2018-09-19T20:24:29.834Z,12.57
2018-09-19T20:27:13.784Z,11.73
2018-09-19T20:29:56.851Z,10.93
2018-09-19T20:32:39.331Z,11.93
2018-09-19T20:35:22.466Z,10.90
2018-09-19T20:38:05.082Z,10.60
2018-09-19T20:40:47.675Z,10.67
2018-09-19T20:43:30.392Z,9.93
2018-09-19T20:46:13.576Z,10.57
2018-09-19T20:48:56.326Z,9.00
2018-09-19T20:51:41.836Z,9.47
2018-09-19T20:54:28.458Z,10.00
2018-09-19T20:57:16.221Z,9.03
2018-09-19T20:59:59.811Z,8.67
2018-09-19T21:02:42.315Z,8.50
2018-09-19T21:05:25.154Z,8.93
2018-09-19T21:08:07.581Z,7.90
2018-09-19T21:10:50.492Z,8.10
2018-09-19T21:13:33.046Z,8.20
2018-09-19T21:16:15.825Z,7.50
2018-09-19T21:18:58.302Z,7.07
2018-09-19T21:21:41.107Z,7.60
2018-09-19T21:24:23.742Z,7.70
2018-09-19T21:27:06.449Z,8.70
2018-09-19T21:29:49.241Z,7.93
2018-09-19T21:32:32.313Z,7.90
2018-09-19T21:35:15.420Z,8.20
2018-09-19T21:37:58.582Z,9.07
2018-09-19T21:40:41.377Z,8.20
2018-09-19T21:43:24.532Z,8.03
2018-09-19T21:46:07.087Z,8.00
2018-09-19T21:48:49.542Z,8.83
2018-09-19T21:51:32.183Z,7.83
2018-09-19T21:54:14.818Z,8.10
2018-09-19T21:56:58.494Z,8.30
2018-09-19T21:59:41.390Z,7.20
2018-09-19T22:02:24.032Z,7.30
2018-09-19T22:05:07.033Z,6.80
2018-09-19T22:07:50.413Z,7.80
2018-09-19T22:10:33.103Z,7.30
2018-09-19T22:13:15.719Z,7.80
2018-09-19T22:15:58.501Z,8.00
2018-09-19T22:18:41.008Z,7.40
2018-09-19T22:21:23.659Z,7.43
2018-09-19T22:24:06.642Z,7.87
2018-09-19T22:26:49.483Z,7.60
2018-09-19T22:29:32.035Z,7.17
2018-09-19T22:32:15.106Z,7.87
2018-09-19T22:34:57.652Z,7.20
2018-09-19T22:37:40.447Z,7.20
2018-09-19T22:40:23.144Z,6.80
2018-09-19T22:43:06.639Z,9.10
2018-09-19T22:45:49.757Z,7.80
2018-09-19T22:48:32.334Z,7.40
2018-09-19T22:51:15.176Z,7.83
2018-09-19T22:53:58.172Z,7.73
2018-09-19T22:56:40.875Z,7.30
2018-09-19T22:59:23.606Z,7.47
2018-09-19T23:02:06.244Z,7.40
2018-09-19T23:04:49.036Z,7.20
2018-09-19T23:07:31.682Z,7.27
2018-09-19T23:10:14.356Z,7.10
2018-09-19T23:12:57.171Z,8.27
2018-09-19T23:15:40.010Z,8.20
2018-09-19T23:18:22.570Z,7.43
2018-09-19T23:21:05.310Z,8.40
2018-09-19T23:23:48.167Z,9.10
2018-09-19T23:26:31.055Z,8.10
2018-09-19T23:29:13.788Z,7.80
2018-09-19T23:31:56.315Z,8.53
2018-09-19T23:34:39.277Z,7.70
2018-09-19T23:37:22.032Z,9.20
2018-09-19T23:40:04.558Z,7.23
2018-09-19T23:42:47.175Z,8.10
2018-09-19T23:45:29.847Z,8.30
2018-09-19T23:48:12.777Z,7.87
2018-09-19T23:50:55.327Z,7.80
2018-09-19T23:53:38.023Z,8.00
2018-09-19T23:56:20.875Z,8.00
2018-09-19T23:59:03.564Z,7.20
